createdAt,value
2022-11-08T00:01:47.080Z,5.68
2022-11-08T00:04:17.599Z,5.68
2022-11-08T00:07:04.068Z,5.68
2022-11-08T00:09:50.555Z,5.70
2022-11-08T00:12:36.689Z,5.75
2022-11-08T00:15:06.600Z,5.74
2022-11-08T00:17:37.138Z,5.76
2022-11-08T00:20:07.205Z,5.82
2022-11-08T00:22:36.172Z,5.83
2022-11-08T00:25:05.088Z,5.85
2022-11-08T00:27:33.776Z,5.92
2022-11-08T00:30:02.321Z,5.90
2022-11-08T00:32:31.102Z,5.90
2022-11-08T00:35:01.131Z,5.92
2022-11-08T00:37:29.914Z,5.95
2022-11-08T00:39:58.437Z,5.95
2022-11-08T00:42:27.091Z,5.98
2022-11-08T00:44:55.634Z,5.98
2022-11-08T00:47:24.298Z,5.97
2022-11-08T00:49:52.853Z,5.99
2022-11-08T00:52:23.098Z,6.00
2022-11-08T00:54:51.794Z,6.02
2022-11-08T00:57:22.378Z,6.04
2022-11-08T01:00:00.286Z,6.03
2022-11-08T01:02:28.876Z,6.06
2022-11-08T01:04:57.573Z,6.07
2022-11-08T01:07:27.645Z,6.08
2022-11-08T01:09:56.349Z,6.11
2022-11-08T01:12:24.902Z,6.13
2022-11-08T01:14:54.400Z,6.16
2022-11-08T01:17:23.406Z,6.16
2022-11-08T01:19:52.167Z,6.20
2022-11-08T01:22:20.772Z,6.19
2022-11-08T01:24:50.999Z,6.18
2022-11-08T01:27:19.683Z,6.21
2022-11-08T01:29:48.250Z,6.19
2022-11-08T01:32:16.948Z,6.22
2022-11-08T01:34:45.636Z,6.22
2022-11-08T01:37:14.325Z,6.22
2022-11-08T01:39:42.907Z,6.24
2022-11-08T01:42:13.106Z,6.24
2022-11-08T01:44:59.653Z,6.24
2022-11-08T01:47:28.343Z,6.28
2022-11-08T01:50:00.293Z,6.30
2022-11-08T01:52:33.353Z,6.32
2022-11-08T01:55:12.548Z,6.35
2022-11-08T01:57:49.323Z,6.35
2022-11-08T02:00:19.020Z,6.35
2022-11-08T02:02:51.463Z,6.35
2022-11-08T02:05:27.541Z,6.35
2022-11-08T02:08:00.631Z,6.36
2022-11-08T02:10:35.138Z,6.36
2022-11-08T02:13:10.748Z,6.37
2022-11-08T02:15:42.436Z,6.40
2022-11-08T02:18:11.578Z,6.39
2022-11-08T02:20:44.622Z,6.39
2022-11-08T02:23:20.163Z,6.38
2022-11-08T02:25:50.351Z,6.38
2022-11-08T02:28:19.217Z,6.38
2022-11-08T02:30:48.175Z,6.38
2022-11-08T02:33:18.192Z,6.40
2022-11-08T02:35:50.376Z,6.40
2022-11-08T02:38:20.381Z,6.40
2022-11-08T02:40:52.368Z,6.46
2022-11-08T02:43:21.292Z,6.51
2022-11-08T02:45:50.558Z,6.49
2022-11-08T02:48:20.132Z,6.46
2022-11-08T02:50:49.042Z,6.49
2022-11-08T02:53:18.038Z,6.48
2022-11-08T02:55:46.986Z,6.52
2022-11-08T02:58:17.353Z,6.52
2022-11-08T03:00:46.110Z,6.53
2022-11-08T03:03:14.824Z,6.54
2022-11-08T03:05:44.164Z,6.56
2022-11-08T03:08:12.862Z,6.55
2022-11-08T03:10:41.469Z,6.54
2022-11-08T03:13:10.237Z,6.53
2022-11-08T03:15:40.242Z,6.55
2022-11-08T03:18:09.274Z,6.55
2022-11-08T03:20:37.921Z,6.54
2022-11-08T03:23:07.920Z,6.54
2022-11-08T03:25:36.661Z,6.52
2022-11-08T03:28:06.430Z,6.53
2022-11-08T03:30:35.936Z,6.52
2022-11-08T03:33:06.113Z,6.58
2022-11-08T03:35:34.756Z,6.60
2022-11-08T03:38:03.488Z,6.61
2022-11-08T03:40:32.432Z,6.62
2022-11-08T03:43:00.990Z,6.63
2022-11-08T03:45:29.732Z,6.65
2022-11-08T03:47:58.337Z,6.66
2022-11-08T03:50:28.510Z,6.67
2022-11-08T03:52:57.804Z,6.66
2022-11-08T03:55:28.799Z,6.68
2022-11-08T03:57:57.588Z,6.67
2022-11-08T04:00:28.744Z,6.66
2022-11-08T04:03:03.361Z,6.69
2022-11-08T04:05:33.940Z,6.66
2022-11-08T04:08:06.301Z,6.68
2022-11-08T04:10:35.439Z,6.71
2022-11-08T04:13:21.481Z,6.71
2022-11-08T04:15:55.774Z,6.72
2022-11-08T04:18:42.104Z,6.74
2022-11-08T04:21:20.601Z,6.73
2022-11-08T04:23:50.601Z,6.78
2022-11-08T04:26:20.501Z,6.78
2022-11-08T04:28:49.448Z,6.79
2022-11-08T04:31:21.752Z,6.84
2022-11-08T04:33:50.891Z,6.84
2022-11-08T04:36:21.159Z,6.84
2022-11-08T04:38:51.311Z,6.87
2022-11-08T04:41:22.687Z,6.88
2022-11-08T04:43:52.983Z,6.87
2022-11-08T04:46:23.960Z,6.87
2022-11-08T04:48:54.624Z,6.90
2022-11-08T04:51:27.843Z,6.93
2022-11-08T04:53:57.958Z,6.93
2022-11-08T04:56:28.308Z,6.97
2022-11-08T04:58:58.328Z,6.96
2022-11-08T05:01:28.926Z,6.97
2022-11-08T05:03:59.208Z,7.00
2022-11-08T05:06:31.543Z,7.03
2022-11-08T05:09:01.235Z,7.02
2022-11-08T05:11:31.742Z,7.01
2022-11-08T05:14:05.518Z,7.05
2022-11-08T05:16:34.484Z,7.07
2022-11-08T05:19:03.489Z,7.06
2022-11-08T05:21:51.427Z,7.08
2022-11-08T05:24:20.326Z,7.08
2022-11-08T05:26:49.942Z,7.07
2022-11-08T05:29:18.839Z,7.14
2022-11-08T05:31:47.591Z,7.16
2022-11-08T05:34:16.488Z,7.18
2022-11-08T05:36:46.976Z,7.17
2022-11-08T05:39:15.900Z,7.17
2022-11-08T05:41:44.756Z,7.18
2022-11-08T05:44:13.669Z,7.18
2022-11-08T05:46:42.272Z,7.20
2022-11-08T05:49:11.026Z,7.24
2022-11-08T05:51:39.970Z,7.23
2022-11-08T05:54:10.227Z,7.26
2022-11-08T05:56:39.013Z,7.26
2022-11-08T05:59:07.641Z,7.25
2022-11-08T06:01:36.500Z,7.27
2022-11-08T06:04:05.867Z,7.25
2022-11-08T06:06:34.688Z,7.28
2022-11-08T06:09:03.541Z,7.31
2022-11-08T06:11:33.979Z,7.31
2022-11-08T06:14:02.727Z,7.36
2022-11-08T06:16:31.552Z,7.32
2022-11-08T06:19:00.228Z,7.33
2022-11-08T06:21:29.106Z,7.33
2022-11-08T06:23:57.845Z,7.33
2022-11-08T06:26:26.746Z,7.37
2022-11-08T06:28:57.014Z,7.37
2022-11-08T06:31:25.881Z,7.38
2022-11-08T06:33:54.763Z,7.38
2022-11-08T06:36:23.603Z,7.38
2022-11-08T06:38:55.965Z,7.39
2022-11-08T06:41:27.723Z,7.41
2022-11-08T06:43:57.967Z,7.42
2022-11-08T06:46:29.423Z,7.43
2022-11-08T06:48:58.523Z,7.46
2022-11-08T06:51:27.583Z,7.46
2022-11-08T06:53:56.900Z,7.44
2022-11-08T06:56:25.748Z,7.45
2022-11-08T06:58:54.806Z,7.44
2022-11-08T07:01:25.116Z,7.48
2022-11-08T07:03:53.995Z,7.45
2022-11-08T07:06:22.731Z,7.47
2022-11-08T07:08:51.299Z,7.46
2022-11-08T07:11:19.953Z,7.48
2022-11-08T07:13:49.141Z,7.51
2022-11-08T07:16:18.068Z,7.55
2022-11-08T07:18:48.505Z,7.62
2022-11-08T07:21:17.821Z,7.64
2022-11-08T07:23:46.504Z,7.62
2022-11-08T07:26:15.445Z,7.66
2022-11-08T07:28:44.207Z,7.70
2022-11-08T07:31:12.998Z,7.70
2022-11-08T07:33:42.204Z,7.67
2022-11-08T07:36:12.484Z,7.68
2022-11-08T07:38:41.214Z,7.74
2022-11-08T07:41:10.772Z,7.82
2022-11-08T07:43:39.557Z,7.88
2022-11-08T07:46:15.052Z,7.88
2022-11-08T07:48:43.966Z,7.84
2022-11-08T07:51:14.434Z,7.82
2022-11-08T07:53:46.881Z,7.82
2022-11-08T07:56:15.750Z,7.81
2022-11-08T07:58:44.452Z,7.79
2022-11-08T08:01:13.831Z,7.84
2022-11-08T08:03:42.619Z,7.80
2022-11-08T08:06:14.338Z,7.83
2022-11-08T08:08:43.273Z,7.89
2022-11-08T08:11:12.861Z,7.90
2022-11-08T08:13:41.764Z,7.90
2022-11-08T08:16:10.908Z,7.90
2022-11-08T08:18:39.613Z,7.95
2022-11-08T08:21:08.413Z,7.97
2022-11-08T08:23:38.530Z,8.01
2022-11-08T08:26:07.603Z,8.00
2022-11-08T08:28:36.489Z,8.00
2022-11-08T08:31:08.250Z,8.00
2022-11-08T08:33:38.088Z,8.02
2022-11-08T08:36:07.636Z,8.06
2022-11-08T08:38:44.096Z,8.12
2022-11-08T08:41:13.469Z,8.16
2022-11-08T08:43:42.153Z,8.19
2022-11-08T08:46:11.141Z,8.26
2022-11-08T08:48:39.908Z,8.36
2022-11-08T08:51:08.689Z,8.43
2022-11-08T08:53:42.291Z,8.44
2022-11-08T08:56:11.247Z,8.40
2022-11-08T08:58:40.511Z,8.38
2022-11-08T09:04:00.891Z,8.31
2022-11-08T09:06:29.687Z,8.30
2022-11-08T09:08:59.948Z,8.28
2022-11-08T09:11:28.643Z,8.29
2022-11-08T09:13:57.469Z,8.32
2022-11-08T09:16:26.265Z,8.32
2022-11-08T09:18:55.107Z,8.35
2022-11-08T09:21:24.089Z,8.37
2022-11-08T09:23:52.854Z,8.38
2022-11-08T09:26:23.007Z,8.38
2022-11-08T09:28:52.004Z,8.37
2022-11-08T09:31:20.725Z,8.38
2022-11-08T09:33:52.693Z,8.39
2022-11-08T09:36:21.540Z,8.39
2022-11-08T09:38:50.351Z,8.39
2022-11-08T09:41:51.408Z,8.43
2022-11-08T09:44:38.308Z,8.45
2022-11-08T09:47:14.907Z,8.46
2022-11-08T09:49:47.070Z,8.47
2022-11-08T09:52:26.204Z,8.45
2022-11-08T09:55:03.568Z,8.45
2022-11-08T09:57:47.739Z,8.47
2022-11-08T10:00:17.142Z,8.52
2022-11-08T10:02:46.028Z,8.53
2022-11-08T10:05:18.565Z,8.55
2022-11-08T10:07:55.710Z,8.60
2022-11-08T10:11:08.100Z,8.60
2022-11-08T10:13:50.309Z,8.65
2022-11-08T10:16:31.111Z,8.68
2022-11-08T10:19:21.890Z,8.70
2022-11-08T10:21:59.910Z,8.72
2022-11-08T10:24:36.626Z,8.72
2022-11-08T10:27:12.178Z,8.76
2022-11-08T10:29:45.806Z,8.79
2022-11-08T10:32:19.769Z,8.77
2022-11-08T10:34:56.644Z,8.74
2022-11-08T10:37:26.490Z,8.76
2022-11-08T10:39:59.665Z,8.71
2022-11-08T10:42:40.206Z,8.67
2022-11-08T10:45:11.771Z,8.65
2022-11-08T10:47:41.742Z,8.64
2022-11-08T10:50:15.940Z,8.69
2022-11-08T10:52:49.385Z,8.80
2022-11-08T10:55:33.742Z,8.85
2022-11-08T10:58:02.406Z,8.88
2022-11-08T11:00:34.744Z,8.87
2022-11-08T11:03:20.545Z,8.91
2022-11-08T11:06:00.289Z,8.90
2022-11-08T11:08:29.847Z,8.91
2022-11-08T11:11:23.286Z,8.85
2022-11-08T11:14:07.428Z,8.82
2022-11-08T11:16:38.988Z,8.83
2022-11-08T11:19:15.470Z,8.83
2022-11-08T11:21:46.042Z,8.81
2022-11-08T11:24:21.229Z,8.79
2022-11-08T11:27:01.328Z,8.75
2022-11-08T11:29:31.599Z,8.71
2022-11-08T11:32:23.069Z,8.72
2022-11-08T11:34:55.032Z,8.73
2022-11-08T11:37:32.711Z,8.70
2022-11-08T11:40:20.701Z,8.70
2022-11-08T11:42:58.272Z,8.72
2022-11-08T11:45:33.601Z,8.68
2022-11-08T11:48:12.504Z,8.67
2022-11-08T11:50:45.843Z,8.69
2022-11-08T11:53:22.972Z,8.70
2022-11-08T11:56:43.948Z,8.68
2022-11-08T11:59:41.835Z,8.64
2022-11-08T12:02:44.730Z,8.61
2022-11-08T12:05:33.575Z,8.59
2022-11-08T12:08:19.108Z,8.56
2022-11-08T12:11:01.373Z,8.57
2022-11-08T12:13:42.087Z,8.54
2022-11-08T12:16:18.823Z,8.54
2022-11-08T12:19:17.673Z,8.53
2022-11-08T12:21:59.120Z,8.52
2022-11-08T12:24:46.287Z,8.50
2022-11-08T12:27:25.826Z,8.48
2022-11-08T12:30:03.464Z,8.46
2022-11-08T12:32:57.968Z,8.44
2022-11-08T12:35:35.904Z,8.43
2022-11-08T12:38:24.781Z,8.41
2022-11-08T12:41:02.088Z,8.40
2022-11-08T12:43:46.046Z,8.38
2022-11-08T12:46:18.700Z,8.38
2022-11-08T12:49:08.679Z,8.42
2022-11-08T12:51:52.668Z,8.41
2022-11-08T12:54:31.027Z,8.43
2022-11-08T12:57:04.365Z,8.40
2022-11-08T12:59:38.243Z,8.43
2022-11-08T13:02:16.839Z,8.45
2022-11-08T13:04:54.067Z,8.46
2022-11-08T13:07:33.853Z,8.46
2022-11-08T13:10:12.690Z,8.43
2022-11-08T13:12:49.632Z,8.44
2022-11-08T13:15:21.845Z,8.39
2022-11-08T13:18:26.631Z,8.39
2022-11-08T13:20:55.466Z,8.38
2022-11-08T13:23:29.787Z,8.36
2022-11-08T13:26:24.486Z,8.36
2022-11-08T13:28:54.350Z,8.35
2022-11-08T13:31:48.523Z,8.34
2022-11-08T13:34:47.147Z,8.35
2022-11-08T13:37:30.163Z,8.37
2022-11-08T13:40:20.558Z,8.36
2022-11-08T13:43:24.464Z,8.33
2022-11-08T13:45:54.018Z,8.31
2022-11-08T13:49:05.534Z,8.29
2022-11-08T13:51:35.882Z,8.27
2022-11-08T13:54:06.458Z,8.24
2022-11-08T13:56:52.911Z,8.22
2022-11-08T13:59:57.348Z,8.15
2022-11-08T14:02:50.845Z,8.15
2022-11-08T14:05:31.097Z,8.04
2022-11-08T14:08:32.200Z,8.01
2022-11-08T14:11:28.912Z,7.97
2022-11-08T14:14:35.266Z,7.98
2022-11-08T14:17:35.108Z,7.89
2022-11-08T14:20:30.404Z,7.86
2022-11-08T14:23:00.908Z,7.86
2022-11-08T14:25:32.103Z,7.88
2022-11-08T14:28:00.562Z,7.94
2022-11-08T14:30:32.470Z,7.93
2022-11-08T14:33:17.814Z,7.89
2022-11-08T14:35:55.141Z,7.87
2022-11-08T14:38:24.644Z,7.83
2022-11-08T14:40:56.403Z,7.79
2022-11-08T14:43:27.168Z,7.83
2022-11-08T14:45:58.303Z,7.89
2022-11-08T14:48:30.704Z,7.93
2022-11-08T14:51:06.201Z,7.92
2022-11-08T14:53:45.835Z,7.94
2022-11-08T14:56:19.108Z,7.90
2022-11-08T14:58:49.729Z,7.95
2022-11-08T15:01:22.517Z,7.93
2022-11-08T15:03:57.577Z,7.97
2022-11-08T15:06:34.169Z,8.00
2022-11-08T15:09:04.751Z,8.03
2022-11-08T15:11:35.523Z,8.09
2022-11-08T15:14:06.924Z,8.09
2022-11-08T15:16:43.647Z,8.09
2022-11-08T15:19:28.863Z,8.09
2022-11-08T15:21:58.312Z,8.08
2022-11-08T15:24:35.842Z,8.16
2022-11-08T15:27:15.510Z,8.16
2022-11-08T15:29:52.550Z,8.17
2022-11-08T15:32:23.219Z,8.15
2022-11-08T15:34:57.468Z,8.18
2022-11-08T15:37:31.508Z,8.17
2022-11-08T15:40:03.160Z,8.17
2022-11-08T15:42:32.068Z,8.21
2022-11-08T15:45:03.049Z,8.22
2022-11-08T15:47:39.077Z,8.20
2022-11-08T15:50:19.050Z,8.22
2022-11-08T15:52:49.593Z,8.18
2022-11-08T15:55:20.298Z,8.17
2022-11-08T15:57:50.610Z,8.13
2022-11-08T16:00:24.395Z,8.10
2022-11-08T16:02:54.072Z,8.10
2022-11-08T16:05:25.792Z,8.07
2022-11-08T16:07:55.371Z,8.05
2022-11-08T16:10:28.671Z,8.08
2022-11-08T16:13:01.812Z,8.04
2022-11-08T16:15:32.708Z,8.04
2022-11-08T16:18:02.053Z,8.04
2022-11-08T16:20:34.597Z,8.03
2022-11-08T16:23:05.150Z,7.98
2022-11-08T16:25:38.075Z,7.95
2022-11-08T16:28:09.304Z,7.86
2022-11-08T16:30:38.097Z,7.80
2022-11-08T16:33:19.699Z,7.76
2022-11-08T16:35:55.512Z,7.75
2022-11-08T16:38:27.524Z,7.77
2022-11-08T16:40:56.809Z,7.76
2022-11-08T16:43:25.461Z,7.77
2022-11-08T16:46:09.406Z,7.76
2022-11-08T16:48:40.730Z,7.80
2022-11-08T16:51:19.072Z,7.81
2022-11-08T16:53:47.833Z,7.83
2022-11-08T16:56:16.730Z,7.87
2022-11-08T16:58:46.113Z,7.86
2022-11-08T17:01:18.195Z,7.89
2022-11-08T17:03:46.945Z,7.87
2022-11-08T17:06:19.248Z,7.88
2022-11-08T17:08:48.203Z,7.88
2022-11-08T17:11:19.800Z,7.87
2022-11-08T17:13:49.294Z,7.90
2022-11-08T17:16:18.972Z,7.92
2022-11-08T17:18:52.396Z,7.92
2022-11-08T17:24:19.872Z,7.92
2022-11-08T17:26:51.119Z,7.90
2022-11-08T17:29:20.112Z,7.90
2022-11-08T17:31:49.171Z,7.87
2022-11-08T17:34:18.054Z,7.87
2022-11-08T17:36:48.109Z,7.86
2022-11-08T17:39:17.150Z,7.86
2022-11-08T17:41:45.828Z,7.86
2022-11-08T17:44:14.829Z,7.86
2022-11-08T17:46:43.911Z,7.86
2022-11-08T17:49:12.574Z,7.87
2022-11-08T17:51:41.231Z,7.88
2022-11-08T17:54:11.887Z,7.88
2022-11-08T17:56:40.543Z,7.87
2022-11-08T17:59:12.699Z,7.85
2022-11-08T18:01:41.778Z,7.84
2022-11-08T18:04:12.132Z,7.84
2022-11-08T18:06:40.885Z,7.84
2022-11-08T18:09:10.735Z,7.83
2022-11-08T18:11:47.699Z,7.82
2022-11-08T18:14:17.056Z,7.90
2022-11-08T18:16:45.937Z,7.93
2022-11-08T18:19:14.699Z,7.90
2022-11-08T18:21:43.477Z,7.89
2022-11-08T18:24:12.323Z,7.90
2022-11-08T18:26:42.699Z,7.91
2022-11-08T18:29:11.576Z,7.96
2022-11-08T18:31:40.371Z,7.92
2022-11-08T18:34:10.845Z,7.93
2022-11-08T18:36:39.614Z,7.90
2022-11-08T18:39:08.314Z,7.96
2022-11-08T18:41:37.084Z,7.95
2022-11-08T18:44:07.424Z,7.98
2022-11-08T18:46:41.854Z,7.96
2022-11-08T18:49:12.119Z,8.11
2022-11-08T18:51:41.361Z,8.17
2022-11-08T18:54:10.139Z,8.27
2022-11-08T18:56:38.941Z,8.22
2022-11-08T18:59:09.435Z,8.20
2022-11-08T19:01:38.264Z,8.33
2022-11-08T19:04:07.214Z,8.42
2022-11-08T19:06:35.853Z,8.44
2022-11-08T19:09:05.996Z,8.53
2022-11-08T19:11:34.813Z,8.58
2022-11-08T19:14:03.492Z,8.53
2022-11-08T19:16:34.968Z,8.44
2022-11-08T19:19:03.609Z,8.45
2022-11-08T19:21:34.564Z,8.39
2022-11-08T19:24:04.281Z,8.28
2022-11-08T19:26:32.982Z,8.30
2022-11-08T19:29:03.320Z,8.34
2022-11-08T19:31:35.100Z,8.35
2022-11-08T19:34:04.011Z,8.33
2022-11-08T19:36:33.791Z,8.31
2022-11-08T19:39:02.529Z,8.37
2022-11-08T19:41:31.161Z,8.33
2022-11-08T19:43:59.988Z,8.36
2022-11-08T19:46:31.275Z,8.30
2022-11-08T19:49:03.669Z,8.32
2022-11-08T19:51:34.846Z,8.38
2022-11-08T19:54:05.204Z,8.27
2022-11-08T19:59:23.631Z,8.31
2022-11-08T20:01:52.477Z,8.28
2022-11-08T20:04:23.223Z,8.27
2022-11-08T20:06:52.048Z,8.29
2022-11-08T20:09:24.623Z,8.31
2022-11-08T20:11:57.077Z,8.28
2022-11-08T20:14:25.907Z,8.32
2022-11-08T20:16:54.668Z,8.35
2022-11-08T20:19:24.669Z,8.44
2022-11-08T20:21:56.830Z,8.45
2022-11-08T20:24:25.534Z,8.47
2022-11-08T20:26:55.510Z,8.44
2022-11-08T20:29:24.510Z,8.47
2022-11-08T20:31:53.509Z,8.46
2022-11-08T20:34:22.528Z,8.43
2022-11-08T20:36:52.746Z,8.42
2022-11-08T20:39:21.766Z,8.45
2022-11-08T20:41:50.467Z,8.44
2022-11-08T20:44:20.307Z,8.47
2022-11-08T20:46:48.911Z,8.47
2022-11-08T20:49:17.730Z,8.49
2022-11-08T20:51:49.327Z,8.52
2022-11-08T20:54:19.587Z,8.56
2022-11-08T20:56:48.327Z,8.60
2022-11-08T20:59:16.887Z,8.63
2022-11-08T21:01:45.878Z,8.66
2022-11-08T21:04:15.127Z,8.62
2022-11-08T21:06:44.315Z,8.68
2022-11-08T21:09:37.427Z,8.71
2022-11-08T21:12:03.550Z,8.68
2022-11-08T21:14:32.747Z,8.71
2022-11-08T21:19:52.092Z,8.77
2022-11-08T21:22:20.970Z,8.76
2022-11-08T21:24:50.259Z,8.80
2022-11-08T21:27:20.338Z,8.78
2022-11-08T21:29:49.108Z,8.80
2022-11-08T21:32:17.789Z,8.80
2022-11-08T21:34:47.380Z,8.82
2022-11-08T21:37:16.637Z,8.86
2022-11-08T21:39:45.455Z,8.86
2022-11-08T21:42:14.239Z,8.86
2022-11-08T21:44:44.449Z,8.88
2022-11-08T21:47:13.331Z,8.88
2022-11-08T21:49:41.987Z,8.89
2022-11-08T21:52:10.771Z,8.88
2022-11-08T21:54:40.733Z,8.90
2022-11-08T21:57:09.608Z,8.91
2022-11-08T21:59:38.278Z,8.93
2022-11-08T22:02:09.250Z,8.93
2022-11-08T22:04:38.320Z,8.94
2022-11-08T22:07:07.049Z,8.95
2022-11-08T22:09:35.818Z,8.95
2022-11-08T22:12:04.777Z,8.96
2022-11-08T22:14:33.451Z,8.96
2022-11-08T22:17:02.257Z,8.95
2022-11-08T22:19:32.559Z,8.93
2022-11-08T22:22:01.171Z,8.98
2022-11-08T22:24:30.374Z,8.97
2022-11-08T22:26:59.192Z,8.99
2022-11-08T22:29:27.978Z,8.99
2022-11-08T22:31:56.828Z,9.00
2022-11-08T22:34:25.631Z,8.97
2022-11-08T22:36:56.088Z,9.00
2022-11-08T22:39:25.126Z,9.01
2022-11-08T22:41:56.186Z,8.96
2022-11-08T22:44:27.645Z,8.99
2022-11-08T22:46:56.465Z,8.97
2022-11-08T22:49:25.222Z,8.95
2022-11-08T22:51:55.405Z,8.98
2022-11-08T22:54:24.198Z,8.96
2022-11-08T22:56:53.047Z,8.99
2022-11-08T22:59:21.838Z,8.99
2022-11-08T23:01:50.646Z,8.97
2022-11-08T23:04:19.607Z,8.97
2022-11-08T23:06:48.304Z,8.96
2022-11-08T23:09:18.471Z,8.96
2022-11-08T23:12:04.263Z,8.95
2022-11-08T23:14:50.388Z,8.97
2022-11-08T23:17:19.065Z,8.95
2022-11-08T23:20:04.873Z,8.96
2022-11-08T23:22:59.069Z,8.96
2022-11-08T23:25:29.346Z,8.95
2022-11-08T23:28:15.094Z,8.94
2022-11-08T23:31:01.942Z,8.96
2022-11-08T23:33:30.574Z,8.95
2022-11-08T23:36:16.009Z,8.94
2022-11-08T23:38:45.224Z,8.95
2022-11-08T23:41:47.285Z,8.94
2022-11-08T23:44:27.985Z,8.96
2022-11-08T23:46:58.387Z,8.97
2022-11-08T23:49:27.432Z,8.97
2022-11-08T23:51:56.375Z,8.97
2022-11-08T23:54:25.011Z,8.97
2022-11-08T23:56:55.221Z,8.99
2022-11-08T23:59:23.906Z,9.00
